sensor_id;sensor_type;location;lat;lon;timestamp;pressure;altitude;pressure_sealevel;temperature;humidity
73842;BME280;62184;52.006;5.924;2023-09-19T00:01:27;99895.50;;;22.14;47.61
73842;BME280;62184;52.006;5.924;2023-09-19T00:03:56;99902.59;;;22.05;47.84
73842;BME280;62184;52.006;5.924;2023-09-19T00:06:23;99913.16;;;21.99;48.21
73842;BME280;62184;52.006;5.924;2023-09-19T00:08:49;99915.13;;;21.97;48.41
73842;BME280;62184;52.006;5.924;2023-09-19T00:11:16;99922.31;;;21.98;48.22
73842;BME280;62184;52.006;5.924;2023-09-19T00:13:42;99922.06;;;22.01;48.47
73842;BME280;62184;52.006;5.924;2023-09-19T00:16:10;99925.59;;;22.01;48.22
73842;BME280;62184;52.006;5.924;2023-09-19T00:18:37;99923.75;;;22.02;48.20
73842;BME280;62184;52.006;5.924;2023-09-19T00:21:06;99932.94;;;22.01;48.36
73842;BME280;62184;52.006;5.924;2023-09-19T00:23:33;99927.06;;;22.05;48.53
73842;BME280;62184;52.006;5.924;2023-09-19T00:25:59;99931.25;;;22.10;48.40
73842;BME280;62184;52.006;5.924;2023-09-19T00:28:26;99940.13;;;22.12;48.63
73842;BME280;62184;52.006;5.924;2023-09-19T00:30:53;99948.78;;;22.17;48.36
73842;BME280;62184;52.006;5.924;2023-09-19T00:33:19;99945.06;;;22.18;48.66
73842;BME280;62184;52.006;5.924;2023-09-19T00:35:47;99946.63;;;22.20;48.82
73842;BME280;62184;52.006;5.924;2023-09-19T00:38:16;99948.47;;;22.20;48.77
73842;BME280;62184;52.006;5.924;2023-09-19T00:40:44;99945.19;;;22.16;48.73
73842;BME280;62184;52.006;5.924;2023-09-19T00:43:10;99944.19;;;22.17;49.20
73842;BME280;62184;52.006;5.924;2023-09-19T00:45:37;99946.19;;;22.15;49.46
73842;BME280;62184;52.006;5.924;2023-09-19T00:48:05;99949.63;;;22.17;49.58
73842;BME280;62184;52.006;5.924;2023-09-19T00:50:32;99947.63;;;22.19;49.38
73842;BME280;62184;52.006;5.924;2023-09-19T00:52:59;99957.06;;;22.15;49.69
73842;BME280;62184;52.006;5.924;2023-09-19T00:55:29;99964.59;;;22.12;50.17
73842;BME280;62184;52.006;5.924;2023-09-19T00:57:56;99966.34;;;22.13;50.13
73842;BME280;62184;52.006;5.924;2023-09-19T01:00:23;99968.94;;;22.14;49.84
73842;BME280;62184;52.006;5.924;2023-09-19T01:02:50;99966.81;;;22.18;49.88
73842;BME280;62184;52.006;5.924;2023-09-19T01:05:16;99967.00;;;22.26;50.20
73842;BME280;62184;52.006;5.924;2023-09-19T01:07:43;99974.16;;;22.27;49.76
73842;BME280;62184;52.006;5.924;2023-09-19T01:10:12;99959.72;;;22.26;49.67
73842;BME280;62184;52.006;5.924;2023-09-19T01:12:51;99966.16;;;22.25;49.79
73842;BME280;62184;52.006;5.924;2023-09-19T01:15:39;99969.53;;;22.18;49.70
73842;BME280;62184;52.006;5.924;2023-09-19T01:18:21;99963.91;;;22.10;49.75
73842;BME280;62184;52.006;5.924;2023-09-19T01:21:07;99970.34;;;22.08;49.83
73842;BME280;62184;52.006;5.924;2023-09-19T01:24:04;99973.44;;;22.04;49.91
73842;BME280;62184;52.006;5.924;2023-09-19T01:26:56;99976.44;;;22.01;50.45
73842;BME280;62184;52.006;5.924;2023-09-19T01:29:49;99973.84;;;21.99;50.39
73842;BME280;62184;52.006;5.924;2023-09-19T01:32:19;99977.69;;;21.97;50.11
73842;BME280;62184;52.006;5.924;2023-09-19T01:34:49;99972.13;;;21.98;50.60
73842;BME280;62184;52.006;5.924;2023-09-19T01:37:17;99970.38;;;21.97;50.38
73842;BME280;62184;52.006;5.924;2023-09-19T01:39:46;99977.69;;;21.97;50.37
73842;BME280;62184;52.006;5.924;2023-09-19T01:42:21;99978.41;;;21.99;50.11
73842;BME280;62184;52.006;5.924;2023-09-19T01:44:59;99989.50;;;22.07;49.88
73842;BME280;62184;52.006;5.924;2023-09-19T01:47:38;99988.50;;;22.08;49.97
73842;BME280;62184;52.006;5.924;2023-09-19T01:50:13;99988.75;;;22.05;50.10
73842;BME280;62184;52.006;5.924;2023-09-19T01:52:59;99986.56;;;21.99;49.88
73842;BME280;62184;52.006;5.924;2023-09-19T01:55:30;99986.69;;;21.97;49.65
73842;BME280;62184;52.006;5.924;2023-09-19T01:58:11;99989.69;;;21.94;49.54
73842;BME280;62184;52.006;5.924;2023-09-19T02:00:43;99991.53;;;21.94;49.68
73842;BME280;62184;52.006;5.924;2023-09-19T02:03:15;99987.13;;;21.93;49.20
73842;BME280;62184;52.006;5.924;2023-09-19T02:05:48;99988.97;;;21.92;49.20
73842;BME280;62184;52.006;5.924;2023-09-19T02:08:16;99995.53;;;21.90;49.00
73842;BME280;62184;52.006;5.924;2023-09-19T02:10:43;99989.59;;;21.85;48.71
73842;BME280;62184;52.006;5.924;2023-09-19T02:13:09;99992.31;;;21.85;48.67
73842;BME280;62184;52.006;5.924;2023-09-19T02:15:36;100005.69;;;21.77;48.65
73842;BME280;62184;52.006;5.924;2023-09-19T02:18:03;99997.28;;;21.68;48.49
73842;BME280;62184;52.006;5.924;2023-09-19T02:20:32;100002.25;;;21.63;48.32
73842;BME280;62184;52.006;5.924;2023-09-19T02:22:59;100008.34;;;21.56;48.70
73842;BME280;62184;52.006;5.924;2023-09-19T02:25:25;100002.56;;;21.49;48.52
73842;BME280;62184;52.006;5.924;2023-09-19T02:27:52;100000.09;;;21.46;48.41
73842;BME280;62184;52.006;5.924;2023-09-19T02:30:18;100002.81;;;21.46;48.80
73842;BME280;62184;52.006;5.924;2023-09-19T02:32:45;100003.91;;;21.44;48.71
73842;BME280;62184;52.006;5.924;2023-09-19T02:35:11;99992.19;;;21.43;48.28
73842;BME280;62184;52.006;5.924;2023-09-19T02:37:40;100004.44;;;21.38;48.05
73842;BME280;62184;52.006;5.924;2023-09-19T02:40:08;100008.53;;;21.32;47.84
73842;BME280;62184;52.006;5.924;2023-09-19T02:42:35;100014.22;;;21.29;48.11
73842;BME280;62184;52.006;5.924;2023-09-19T02:45:01;100017.91;;;21.28;47.72
73842;BME280;62184;52.006;5.924;2023-09-19T02:47:27;100014.72;;;21.23;47.64
73842;BME280;62184;52.006;5.924;2023-09-19T02:49:54;100016.09;;;21.17;48.08
73842;BME280;62184;52.006;5.924;2023-09-19T02:52:20;100018.44;;;21.11;47.72
73842;BME280;62184;52.006;5.924;2023-09-19T02:54:49;100017.72;;;21.09;47.98
73842;BME280;62184;52.006;5.924;2023-09-19T02:57:16;100022.75;;;21.02;47.67
73842;BME280;62184;52.006;5.924;2023-09-19T02:59:42;100018.47;;;21.00;47.47
73842;BME280;62184;52.006;5.924;2023-09-19T03:02:09;100015.75;;;21.00;47.33
73842;BME280;62184;52.006;5.924;2023-09-19T03:04:35;100019.66;;;20.95;47.74
73842;BME280;62184;52.006;5.924;2023-09-19T03:07:02;100022.38;;;20.95;47.65
73842;BME280;62184;52.006;5.924;2023-09-19T03:09:28;100027.31;;;20.90;47.50
73842;BME280;62184;52.006;5.924;2023-09-19T03:11:57;100022.25;;;20.86;47.26
73842;BME280;62184;52.006;5.924;2023-09-19T03:14:24;100027.94;;;20.83;47.69
73842;BME280;62184;52.006;5.924;2023-09-19T03:16:51;100019.53;;;20.86;47.28
73842;BME280;62184;52.006;5.924;2023-09-19T03:19:17;100014.22;;;20.84;47.49
73842;BME280;62184;52.006;5.924;2023-09-19T03:21:44;100025.34;;;20.81;47.47
73842;BME280;62184;52.006;5.924;2023-09-19T03:24:10;100021.13;;;20.77;47.66
73842;BME280;62184;52.006;5.924;2023-09-19T03:26:37;100022.50;;;20.72;47.20
73842;BME280;62184;52.006;5.924;2023-09-19T03:29:06;100023.97;;;20.65;47.44
73842;BME280;62184;52.006;5.924;2023-09-19T03:31:32;100020.63;;;20.61;47.27
73842;BME280;62184;52.006;5.924;2023-09-19T03:33:59;100017.03;;;20.61;47.23
73842;BME280;62184;52.006;5.924;2023-09-19T03:36:26;100011.13;;;20.55;47.66
73842;BME280;62184;52.006;5.924;2023-09-19T03:38:54;100020.88;;;20.58;46.94
73842;BME280;62184;52.006;5.924;2023-09-19T03:41:21;100013.22;;;20.52;47.38
73842;BME280;62184;52.006;5.924;2023-09-19T03:43:47;100017.91;;;20.50;47.10
73842;BME280;62184;52.006;5.924;2023-09-19T03:46:16;100020.88;;;20.47;47.27
73842;BME280;62184;52.006;5.924;2023-09-19T03:48:42;100024.66;;;20.44;47.22
73842;BME280;62184;52.006;5.924;2023-09-19T03:51:09;100017.50;;;20.43;46.73
73842;BME280;62184;52.006;5.924;2023-09-19T03:53:35;100021.34;;;20.41;47.01
73842;BME280;62184;52.006;5.924;2023-09-19T03:56:02;100015.19;;;20.39;46.61
73842;BME280;62184;52.006;5.924;2023-09-19T03:58:28;100008.25;;;20.35;46.43
73842;BME280;62184;52.006;5.924;2023-09-19T04:00:55;100016.75;;;20.30;46.97
73842;BME280;62184;52.006;5.924;2023-09-19T04:03:24;100013.69;;;20.24;46.78
73842;BME280;62184;52.006;5.924;2023-09-19T04:05:51;100013.91;;;20.20;46.90
73842;BME280;62184;52.006;5.924;2023-09-19T04:08:17;100020.06;;;20.23;46.69
73842;BME280;62184;52.006;5.924;2023-09-19T04:10:44;100015.63;;;20.22;46.72
73842;BME280;62184;52.006;5.924;2023-09-19T04:13:11;100015.75;;;20.20;46.66
73842;BME280;62184;52.006;5.924;2023-09-19T04:15:37;100016.00;;;20.17;46.51
73842;BME280;62184;52.006;5.924;2023-09-19T04:18:04;100037.03;;;20.13;46.34
73842;BME280;62184;52.006;5.924;2023-09-19T04:20:33;100028.03;;;20.13;46.63
73842;BME280;62184;52.006;5.924;2023-09-19T04:22:59;100031.81;;;20.10;46.17
73842;BME280;62184;52.006;5.924;2023-09-19T04:25:26;100041.94;;;20.08;46.31
73842;BME280;62184;52.006;5.924;2023-09-19T04:27:52;100045.28;;;20.12;46.39
73842;BME280;62184;52.006;5.924;2023-09-19T04:30:19;100062.72;;;20.20;46.16
73842;BME280;62184;52.006;5.924;2023-09-19T04:32:45;100069.66;;;20.25;46.34
73842;BME280;62184;52.006;5.924;2023-09-19T04:35:12;100069.38;;;20.28;45.82
73842;BME280;62184;52.006;5.924;2023-09-19T04:37:41;100062.88;;;20.30;45.62
73842;BME280;62184;52.006;5.924;2023-09-19T04:40:09;100074.59;;;20.31;45.73
73842;BME280;62184;52.006;5.924;2023-09-19T04:42:36;100090.22;;;20.27;45.84
73842;BME280;62184;52.006;5.924;2023-09-19T04:45:03;100078.97;;;20.20;45.65
73842;BME280;62184;52.006;5.924;2023-09-19T04:47:30;100074.34;;;20.10;45.94
73842;BME280;62184;52.006;5.924;2023-09-19T04:49:57;100079.16;;;20.06;45.80
73842;BME280;62184;52.006;5.924;2023-09-19T04:52:23;100083.72;;;20.06;46.35
73842;BME280;62184;52.006;5.924;2023-09-19T04:54:52;100083.72;;;20.06;45.73
73842;BME280;62184;52.006;5.924;2023-09-19T04:57:19;100085.56;;;20.05;46.34
73842;BME280;62184;52.006;5.924;2023-09-19T04:59:45;100082.19;;;20.02;46.01
73842;BME280;62184;52.006;5.924;2023-09-19T05:02:12;100098.47;;;20.02;45.95
73842;BME280;62184;52.006;5.924;2023-09-19T05:04:38;100094.03;;;20.01;46.12
73842;BME280;62184;52.006;5.924;2023-09-19T05:07:05;100093.91;;;20.02;46.23
73842;BME280;62184;52.006;5.924;2023-09-19T05:09:31;100087.00;;;19.98;46.10
73842;BME280;62184;52.006;5.924;2023-09-19T05:12:00;100085.28;;;19.97;46.49
73842;BME280;62184;52.006;5.924;2023-09-19T05:14:26;100081.31;;;20.01;46.52
73842;BME280;62184;52.006;5.924;2023-09-19T05:16:53;100078.28;;;20.06;45.96
73842;BME280;62184;52.006;5.924;2023-09-19T05:19:19;100081.88;;;20.06;45.96
73842;BME280;62184;52.006;5.924;2023-09-19T05:21:46;100086.31;;;20.07;46.15
73842;BME280;62184;52.006;5.924;2023-09-19T05:24:12;100092.22;;;20.12;46.26
73842;BME280;62184;52.006;5.924;2023-09-19T05:26:39;100090.06;;;20.17;46.56
73842;BME280;62184;52.006;5.924;2023-09-19T05:29:08;100092.31;;;20.24;45.98
73842;BME280;62184;52.006;5.924;2023-09-19T05:31:34;100090.59;;;20.23;45.93
73842;BME280;62184;52.006;5.924;2023-09-19T05:34:00;100093.91;;;20.26;46.44
73842;BME280;62184;52.006;5.924;2023-09-19T05:36:27;100090.09;;;20.29;46.12
73842;BME280;62184;52.006;5.924;2023-09-19T05:38:53;100085.66;;;20.28;46.13
73842;BME280;62184;52.006;5.924;2023-09-19T05:41:20;100081.97;;;20.29;46.54
73842;BME280;62184;52.006;5.924;2023-09-19T05:43:48;100092.69;;;20.30;46.40
73842;BME280;62184;52.006;5.924;2023-09-19T05:46:17;100099.97;;;20.30;46.76
73842;BME280;62184;52.006;5.924;2023-09-19T05:48:44;100102.47;;;20.33;46.63
73842;BME280;62184;52.006;5.924;2023-09-19T05:51:10;100090.16;;;20.40;46.70
73842;BME280;62184;52.006;5.924;2023-09-19T05:53:37;100092.59;;;20.43;46.47
73842;BME280;62184;52.006;5.924;2023-09-19T05:56:04;100091.50;;;20.45;46.05
73842;BME280;62184;52.006;5.924;2023-09-19T05:58:30;100085.97;;;20.47;46.64
73842;BME280;62184;52.006;5.924;2023-09-19T06:00:56;100089.31;;;20.50;46.18
73842;BME280;62184;52.006;5.924;2023-09-19T06:03:25;100087.72;;;20.48;46.49
73842;BME280;62184;52.006;5.924;2023-09-19T06:05:52;100091.91;;;20.52;46.42
73842;BME280;62184;52.006;5.924;2023-09-19T06:08:18;100102.53;;;20.55;46.33
73842;BME280;62184;52.006;5.924;2023-09-19T06:10:46;100102.53;;;20.55;46.82
73842;BME280;62184;52.006;5.924;2023-09-19T06:13:12;100106.59;;;20.61;46.81
73842;BME280;62184;52.006;5.924;2023-09-19T06:15:39;100109.94;;;20.64;46.38
73842;BME280;62184;52.006;5.924;2023-09-19T06:18:10;100114.13;;;20.68;46.87
73842;BME280;62184;52.006;5.924;2023-09-19T06:20:40;100105.53;;;20.74;46.77
73842;BME280;62184;52.006;5.924;2023-09-19T06:23:06;100107.25;;;20.75;46.74
73842;BME280;62184;52.006;5.924;2023-09-19T06:25:32;100110.09;;;20.74;46.85
73842;BME280;62184;52.006;5.924;2023-09-19T06:27:59;100114.78;;;20.72;46.53
73842;BME280;62184;52.006;5.924;2023-09-19T06:30:25;100113.41;;;20.77;46.47
73842;BME280;62184;52.006;5.924;2023-09-19T06:32:55;100122.06;;;20.82;46.65
73842;BME280;62184;52.006;5.924;2023-09-19T06:35:22;100127.25;;;20.85;46.94
73842;BME280;62184;52.006;5.924;2023-09-19T06:37:51;100127.66;;;20.92;46.60
73842;BME280;62184;52.006;5.924;2023-09-19T06:40:18;100137.19;;;20.98;46.91
73842;BME280;62184;52.006;5.924;2023-09-19T06:42:46;100136.81;;;21.02;47.07
73842;BME280;62184;52.006;5.924;2023-09-19T06:45:16;100131.13;;;21.05;46.73
73842;BME280;62184;52.006;5.924;2023-09-19T06:47:43;100133.00;;;21.16;46.72
73842;BME280;62184;52.006;5.924;2023-09-19T06:50:09;100126.31;;;21.20;46.74
73842;BME280;62184;52.006;5.924;2023-09-19T06:52:36;100132.28;;;21.25;46.52
73842;BME280;62184;52.006;5.924;2023-09-19T06:55:05;100132.75;;;21.30;46.71
73842;BME280;62184;52.006;5.924;2023-09-19T06:57:32;100129.06;;;21.31;46.83
73842;BME280;62184;52.006;5.924;2023-09-19T06:59:58;100120.66;;;21.34;46.61
73842;BME280;62184;52.006;5.924;2023-09-19T07:02:25;100127.44;;;21.40;46.71
73842;BME280;62184;52.006;5.924;2023-09-19T07:04:51;100109.78;;;21.45;46.61
73842;BME280;62184;52.006;5.924;2023-09-19T07:07:18;100123.22;;;21.47;46.90
73842;BME280;62184;52.006;5.924;2023-09-19T07:09:44;100133.34;;;21.56;46.77
73842;BME280;62184;52.006;5.924;2023-09-19T07:12:13;100131.63;;;21.66;46.43
73842;BME280;62184;52.006;5.924;2023-09-19T07:14:40;100133.19;;;21.68;46.71
73842;BME280;62184;52.006;5.924;2023-09-19T07:17:06;100135.22;;;21.66;46.38
73842;BME280;62184;52.006;5.924;2023-09-19T07:19:32;100131.22;;;21.70;46.27
73842;BME280;62184;52.006;5.924;2023-09-19T07:21:59;100133.34;;;21.78;46.54
73842;BME280;62184;52.006;5.924;2023-09-19T07:24:25;100128.25;;;21.85;46.59
73842;BME280;62184;52.006;5.924;2023-09-19T07:26:52;100134.72;;;21.84;46.49
73842;BME280;62184;52.006;5.924;2023-09-19T07:29:21;100134.66;;;21.95;46.62
73842;BME280;62184;52.006;5.924;2023-09-19T07:31:48;100137.72;;;22.01;46.13
73842;BME280;62184;52.006;5.924;2023-09-19T07:34:14;100136.97;;;22.11;45.99
73842;BME280;62184;52.006;5.924;2023-09-19T07:36:40;100130.88;;;22.18;45.87
73842;BME280;62184;52.006;5.924;2023-09-19T07:39:07;100134.34;;;22.20;45.79
73842;BME280;62184;52.006;5.924;2023-09-19T07:41:34;100137.06;;;22.20;45.94
73842;BME280;62184;52.006;5.924;2023-09-19T07:44:00;100133.56;;;22.29;45.59
73842;BME280;62184;52.006;5.924;2023-09-19T07:46:30;100142.56;;;22.41;45.55
73842;BME280;62184;52.006;5.924;2023-09-19T07:48:57;100142.03;;;22.47;45.22
73842;BME280;62184;52.006;5.924;2023-09-19T07:51:23;100129.38;;;22.57;45.14
73842;BME280;62184;52.006;5.924;2023-09-19T07:53:50;100146.50;;;22.69;45.09
73842;BME280;62184;52.006;5.924;2023-09-19T07:56:16;100141.06;;;22.69;44.83
73842;BME280;62184;52.006;5.924;2023-09-19T07:58:42;100146.25;;;22.72;45.10
73842;BME280;62184;52.006;5.924;2023-09-19T08:01:10;100134.38;;;22.73;44.97
73842;BME280;62184;52.006;5.924;2023-09-19T08:03:39;100147.56;;;22.77;44.96
73842;BME280;62184;52.006;5.924;2023-09-19T08:06:06;100152.22;;;22.87;44.62
73842;BME280;62184;52.006;5.924;2023-09-19T08:08:34;100150.09;;;22.90;44.95
73842;BME280;62184;52.006;5.924;2023-09-19T08:11:00;100146.25;;;22.93;44.80
73842;BME280;62184;52.006;5.924;2023-09-19T08:13:27;100151.03;;;23.00;44.82
73842;BME280;62184;52.006;5.924;2023-09-19T08:15:53;100149.06;;;23.12;44.26
73842;BME280;62184;52.006;5.924;2023-09-19T08:18:19;100154.34;;;23.25;44.60
73842;BME280;62184;52.006;5.924;2023-09-19T08:20:52;100150.81;;;23.34;44.18
73842;BME280;62184;52.006;5.924;2023-09-19T08:23:19;100150.53;;;23.37;44.16
73842;BME280;62184;52.006;5.924;2023-09-19T08:25:45;100150.25;;;23.40;44.26
73842;BME280;62184;52.006;5.924;2023-09-19T08:28:12;100156.50;;;23.51;43.82
73842;BME280;62184;52.006;5.924;2023-09-19T08:30:39;100152.78;;;23.62;43.65
73842;BME280;62184;52.006;5.924;2023-09-19T08:33:05;100148.34;;;23.71;43.86
73842;BME280;62184;52.006;5.924;2023-09-19T08:35:32;100150.81;;;23.74;43.31
73842;BME280;62184;52.006;5.924;2023-09-19T08:38:01;100153.69;;;23.72;43.63
73842;BME280;62184;52.006;5.924;2023-09-19T08:40:27;100144.81;;;23.80;43.28
73842;BME280;62184;52.006;5.924;2023-09-19T08:42:55;100150.84;;;23.83;43.67
73842;BME280;62184;52.006;5.924;2023-09-19T08:45:24;100145.41;;;23.83;43.26
73842;BME280;62184;52.006;5.924;2023-09-19T08:48:00;100144.41;;;23.84;43.15
73842;BME280;62184;52.006;5.924;2023-09-19T08:50:48;100138.56;;;23.99;43.41
73842;BME280;62184;52.006;5.924;2023-09-19T08:53:26;100152.50;;;24.15;43.10
73842;BME280;62184;52.006;5.924;2023-09-19T08:55:57;100154.97;;;24.37;42.67
73842;BME280;62184;52.006;5.924;2023-09-19T08:58:28;100149.38;;;24.48;42.35
73842;BME280;62184;52.006;5.924;2023-09-19T09:01:00;100142.63;;;24.52;42.16
73842;BME280;62184;52.006;5.924;2023-09-19T09:03:32;100133.16;;;24.66;41.94
73842;BME280;62184;52.006;5.924;2023-09-19T09:06:00;100137.91;;;24.64;42.08
73842;BME280;62184;52.006;5.924;2023-09-19T09:08:30;100146.97;;;24.64;41.94
73842;BME280;62184;52.006;5.924;2023-09-19T09:10:57;100139.75;;;24.63;41.75
73842;BME280;62184;52.006;5.924;2023-09-19T09:13:24;100148.09;;;24.52;41.52
73842;BME280;62184;52.006;5.924;2023-09-19T09:15:52;100136.47;;;24.60;42.04
73842;BME280;62184;52.006;5.924;2023-09-19T09:18:18;100141.91;;;24.69;41.64
73842;BME280;62184;52.006;5.924;2023-09-19T09:20:45;100142.47;;;24.83;41.88
73842;BME280;62184;52.006;5.924;2023-09-19T09:23:11;100134.25;;;25.02;41.01
73842;BME280;62184;52.006;5.924;2023-09-19T09:25:50;100133.78;;;25.16;41.36
73842;BME280;62184;52.006;5.924;2023-09-19T09:28:20;100133.31;;;25.21;40.77
73842;BME280;62184;52.006;5.924;2023-09-19T09:30:47;100136.47;;;25.35;40.55
73842;BME280;62184;52.006;5.924;2023-09-19T09:33:14;100142.44;;;25.49;40.15
73842;BME280;62184;52.006;5.924;2023-09-19T09:35:48;100134.53;;;25.45;39.78
73842;BME280;62184;52.006;5.924;2023-09-19T09:38:18;100126.19;;;25.47;39.76
73842;BME280;62184;52.006;5.924;2023-09-19T09:40:47;100137.81;;;25.59;39.44
73842;BME280;62184;52.006;5.924;2023-09-19T09:43:25;100133.75;;;25.63;39.63
73842;BME280;62184;52.006;5.924;2023-09-19T09:46:06;100118.63;;;25.68;39.36
73842;BME280;62184;52.006;5.924;2023-09-19T09:48:34;100120.72;;;25.74;38.70
73842;BME280;62184;52.006;5.924;2023-09-19T09:51:00;100126.59;;;25.79;38.11
73842;BME280;62184;52.006;5.924;2023-09-19T09:53:28;100134.81;;;25.79;38.55
73842;BME280;62184;52.006;5.924;2023-09-19T09:56:02;100138.25;;;25.81;38.03
73842;BME280;62184;52.006;5.924;2023-09-19T09:58:30;100127.69;;;25.87;38.45
73842;BME280;62184;52.006;5.924;2023-09-19T10:00:56;100122.47;;;26.03;37.94
73842;BME280;62184;52.006;5.924;2023-09-19T10:03:31;100132.56;;;26.02;37.47
73842;BME280;62184;52.006;5.924;2023-09-19T10:05:58;100125.22;;;26.03;37.58
73842;BME280;62184;52.006;5.924;2023-09-19T10:08:26;100128.78;;;26.03;37.28
73842;BME280;62184;52.006;5.924;2023-09-19T10:10:52;100129.81;;;26.02;37.59
73842;BME280;62184;52.006;5.924;2023-09-19T10:13:23;100117.38;;;26.08;37.48
73842;BME280;62184;52.006;5.924;2023-09-19T10:15:52;100110.91;;;26.27;37.84
73842;BME280;62184;52.006;5.924;2023-09-19T10:18:21;100111.56;;;26.46;37.80
73842;BME280;62184;52.006;5.924;2023-09-19T10:20:48;100103.78;;;26.69;37.16
73842;BME280;62184;52.006;5.924;2023-09-19T10:23:17;100110.84;;;26.80;36.72
73842;BME280;62184;52.006;5.924;2023-09-19T10:25:45;100106.28;;;26.88;36.48
73842;BME280;62184;52.006;5.924;2023-09-19T10:28:14;100106.63;;;26.85;36.00
73842;BME280;62184;52.006;5.924;2023-09-19T10:30:46;100104.25;;;26.90;36.34
73842;BME280;62184;52.006;5.924;2023-09-19T10:33:15;100097.50;;;27.03;36.62
73842;BME280;62184;52.006;5.924;2023-09-19T10:35:43;100110.34;;;27.02;35.70
73842;BME280;62184;52.006;5.924;2023-09-19T10:38:12;100126.25;;;26.99;35.78
73842;BME280;62184;52.006;5.924;2023-09-19T10:40:43;100108.72;;;26.91;35.98
73842;BME280;62184;52.006;5.924;2023-09-19T10:43:12;100120.53;;;26.92;35.84
73842;BME280;62184;52.006;5.924;2023-09-19T10:45:44;100107.38;;;26.95;36.31
73842;BME280;62184;52.006;5.924;2023-09-19T10:48:12;100112.41;;;26.82;36.03
73842;BME280;62184;52.006;5.924;2023-09-19T10:50:44;100114.78;;;26.77;35.82
73842;BME280;62184;52.006;5.924;2023-09-19T10:53:14;100106.19;;;26.72;36.35
73842;BME280;62184;52.006;5.924;2023-09-19T10:55:50;100100.75;;;26.80;36.31
73842;BME280;62184;52.006;5.924;2023-09-19T10:58:26;100110.78;;;26.72;36.38
73842;BME280;62184;52.006;5.924;2023-09-19T11:00:57;100098.97;;;26.71;36.64
73842;BME280;62184;52.006;5.924;2023-09-19T11:03:25;100108.13;;;26.80;36.94
73842;BME280;62184;52.006;5.924;2023-09-19T11:06:05;100102.97;;;26.77;36.27
73842;BME280;62184;52.006;5.924;2023-09-19T11:09:00;100078.81;;;26.54;36.24
73842;BME280;62184;52.006;5.924;2023-09-19T11:11:44;100077.03;;;26.28;37.13
73842;BME280;62184;52.006;5.924;2023-09-19T11:14:17;100088.22;;;26.16;37.48
73842;BME280;62184;52.006;5.924;2023-09-19T11:17:33;100068.66;;;26.11;37.38
73842;BME280;62184;52.006;5.924;2023-09-19T11:20:29;100064.81;;;26.22;37.67
73842;BME280;62184;52.006;5.924;2023-09-19T11:23:17;100056.06;;;26.36;37.71
73842;BME280;62184;52.006;5.924;2023-09-19T11:25:45;100058.53;;;26.47;37.15
73842;BME280;62184;52.006;5.924;2023-09-19T11:28:38;100058.53;;;26.47;37.12
73842;BME280;62184;52.006;5.924;2023-09-19T11:34:40;100051.88;;;26.50;36.82
73842;BME280;62184;52.006;5.924;2023-09-19T11:40:25;100054.59;;;26.68;36.63
73842;BME280;62184;52.006;5.924;2023-09-19T11:42:51;100050.34;;;26.73;36.27
73842;BME280;62184;52.006;5.924;2023-09-19T11:48:29;100050.84;;;26.94;36.19
73842;BME280;62184;52.006;5.924;2023-09-19T11:51:00;100050.22;;;27.09;36.06
73842;BME280;62184;52.006;5.924;2023-09-19T11:53:31;100043.50;;;27.29;35.67
73842;BME280;62184;52.006;5.924;2023-09-19T11:55:58;100040.78;;;27.37;34.94
73842;BME280;62184;52.006;5.924;2023-09-19T11:58:26;100043.78;;;27.60;35.50
73842;BME280;62184;52.006;5.924;2023-09-19T12:00:54;100042.44;;;27.72;35.19
73842;BME280;62184;52.006;5.924;2023-09-19T12:03:21;100047.84;;;27.90;35.03
73842;BME280;62184;52.006;5.924;2023-09-19T12:05:49;100050.75;;;27.88;34.36
73842;BME280;62184;52.006;5.924;2023-09-19T12:08:19;100063.25;;;27.83;34.35
73842;BME280;62184;52.006;5.924;2023-09-19T12:10:46;100028.44;;;27.83;34.39
73842;BME280;62184;52.006;5.924;2023-09-19T12:13:16;100034.44;;;27.79;33.98
73842;BME280;62184;52.006;5.924;2023-09-19T12:15:43;100040.03;;;27.61;34.10
73842;BME280;62184;52.006;5.924;2023-09-19T12:18:10;100029.91;;;27.53;34.47
73842;BME280;62184;52.006;5.924;2023-09-19T12:20:43;100016.97;;;27.46;34.17
73842;BME280;62184;52.006;5.924;2023-09-19T12:23:13;100037.38;;;27.35;34.49
73842;BME280;62184;52.006;5.924;2023-09-19T12:25:44;100024.38;;;27.45;34.07
73842;BME280;62184;52.006;5.924;2023-09-19T12:28:11;100024.69;;;27.42;33.84
73842;BME280;62184;52.006;5.924;2023-09-19T12:30:38;100035.69;;;27.50;34.55
73842;BME280;62184;52.006;5.924;2023-09-19T12:33:05;100052.88;;;27.60;34.64
73842;BME280;62184;52.006;5.924;2023-09-19T12:35:40;100043.59;;;27.45;33.99
73842;BME280;62184;52.006;5.924;2023-09-19T12:38:06;100039.41;;;27.33;34.15
73842;BME280;62184;52.006;5.924;2023-09-19T12:40:33;100034.25;;;27.30;34.24
73842;BME280;62184;52.006;5.924;2023-09-19T12:43:03;100043.84;;;27.26;33.99
73842;BME280;62184;52.006;5.924;2023-09-19T12:45:31;100047.28;;;27.28;34.22
73842;BME280;62184;52.006;5.924;2023-09-19T12:48:20;100028.25;;;27.26;34.75
73842;BME280;62184;52.006;5.924;2023-09-19T12:51:02;100037.50;;;27.25;34.75
73842;BME280;62184;52.006;5.924;2023-09-19T12:53:29;100035.84;;;27.15;34.63
73842;BME280;62184;52.006;5.924;2023-09-19T12:55:58;100034.09;;;27.06;34.29
73842;BME280;62184;52.006;5.924;2023-09-19T12:58:28;100022.19;;;26.89;34.56
73842;BME280;62184;52.006;5.924;2023-09-19T13:00:54;100014.31;;;26.86;34.84
73842;BME280;62184;52.006;5.924;2023-09-19T13:03:26;100031.13;;;26.91;35.02
73842;BME280;62184;52.006;5.924;2023-09-19T13:05:54;100026.75;;;26.80;34.55
73842;BME280;62184;52.006;5.924;2023-09-19T13:08:23;100008.41;;;26.73;35.20
73842;BME280;62184;52.006;5.924;2023-09-19T13:11:15;100027.00;;;26.61;35.45
73842;BME280;62184;52.006;5.924;2023-09-19T13:13:47;100037.63;;;26.64;35.43